createdAt,value
2023-02-15T00:00:13.003Z,100970.36
2023-02-15T00:01:15.800Z,100976.48
2023-02-15T00:02:17.689Z,100978.19
2023-02-15T00:03:19.646Z,100981.70
2023-02-15T00:04:24.220Z,100981.64
2023-02-15T00:05:26.629Z,100983.39
2023-02-15T00:06:29.791Z,100980.80
2023-02-15T00:07:31.735Z,100984.30
2023-02-15T00:08:34.835Z,100987.77
2023-02-15T00:09:36.740Z,100980.80
2023-02-15T00:10:38.814Z,100982.55
2023-02-15T00:11:42.293Z,100981.65
2023-02-15T00:12:44.561Z,100989.47
2023-02-15T00:13:46.674Z,100976.43
2023-02-15T00:14:48.858Z,100985.16
2023-02-15T00:15:50.818Z,100984.27
2023-02-15T00:16:53.517Z,100977.34
2023-02-15T00:17:57.877Z,100980.80
2023-02-15T00:18:59.914Z,100978.19
2023-02-15T00:20:02.246Z,100986.00
2023-02-15T00:21:08.170Z,100973.83
2023-02-15T00:22:10.384Z,100976.42
2023-02-15T00:23:12.345Z,100976.41
2023-02-15T00:24:17.311Z,100980.78
2023-02-15T00:25:19.238Z,100978.19
2023-02-15T00:26:21.329Z,100976.43
2023-02-15T00:27:24.380Z,100985.10
2023-02-15T00:28:26.296Z,100966.00
2023-02-15T00:29:28.473Z,100973.83
2023-02-15T00:30:31.421Z,100979.92
2023-02-15T00:31:34.458Z,100975.54
2023-02-15T00:32:36.960Z,100977.31
2023-02-15T00:33:39.901Z,100982.49
2023-02-15T00:34:42.092Z,100973.83
2023-02-15T00:35:44.090Z,100976.42
2023-02-15T00:36:46.702Z,100976.42
2023-02-15T00:37:48.596Z,100979.05
2023-02-15T00:38:51.282Z,100976.42
2023-02-15T00:39:53.295Z,100979.89
2023-02-15T00:40:59.229Z,100980.77
2023-02-15T00:42:01.204Z,100978.19
2023-02-15T00:43:03.170Z,100972.11
2023-02-15T00:44:06.359Z,100974.71
2023-02-15T00:45:10.377Z,100978.19
2023-02-15T00:46:12.815Z,100979.03
2023-02-15T00:47:14.903Z,100986.86
2023-02-15T00:48:17.682Z,100980.78
2023-02-15T00:49:19.679Z,100987.70
2023-02-15T00:50:23.752Z,100990.30
2023-02-15T00:51:26.258Z,100983.39
2023-02-15T00:52:28.167Z,100981.63
2023-02-15T00:53:30.419Z,100982.48
2023-02-15T00:54:32.337Z,100980.77
2023-02-15T00:55:34.223Z,100989.44
2023-02-15T00:56:36.320Z,100988.58
2023-02-15T00:57:38.209Z,100981.61
2023-02-15T00:58:40.212Z,100989.44
2023-02-15T00:59:42.214Z,100987.68
2023-02-15T01:00:46.666Z,100983.38
2023-02-15T01:01:48.677Z,100986.84
2023-02-15T01:02:50.577Z,100988.59
2023-02-15T01:03:53.013Z,100988.58
2023-02-15T01:04:56.098Z,100988.59
2023-02-15T01:05:58.320Z,100986.84
2023-02-15T01:07:01.784Z,100986.00
2023-02-15T01:08:04.313Z,100989.47
2023-02-15T01:09:06.484Z,100987.70
2023-02-15T01:10:09.163Z,100987.70
2023-02-15T01:11:14.232Z,100992.91
2023-02-15T01:12:16.166Z,100995.52
2023-02-15T01:13:18.162Z,100990.28
2023-02-15T01:14:20.039Z,100992.03
2023-02-15T01:15:22.742Z,100988.53
2023-02-15T01:16:27.315Z,100996.41
2023-02-15T01:17:30.776Z,100999.87
2023-02-15T01:18:34.492Z,100997.27
2023-02-15T01:19:37.362Z,101000.72
2023-02-15T01:20:40.594Z,100997.25
2023-02-15T01:21:42.486Z,100999.87
2023-02-15T01:22:44.577Z,101004.25
2023-02-15T01:23:47.176Z,101003.34
2023-02-15T01:24:49.631Z,101005.95
2023-02-15T01:25:51.620Z,100994.66
2023-02-15T01:26:53.603Z,101000.75
2023-02-15T01:27:55.516Z,100999.05
2023-02-15T01:28:57.388Z,101005.09
2023-02-15T01:30:00.352Z,101003.34
2023-02-15T01:31:10.461Z,101006.84
2023-02-15T01:32:13.295Z,100997.29
2023-02-15T01:33:15.277Z,101002.50
2023-02-15T01:34:17.179Z,100995.58
2023-02-15T01:35:19.339Z,100999.04
2023-02-15T01:36:21.317Z,101002.50
2023-02-15T01:37:23.198Z,100995.58
2023-02-15T01:38:25.240Z,100992.96
2023-02-15T01:39:27.418Z,101001.64
2023-02-15T01:40:29.708Z,101000.78
2023-02-15T01:41:31.577Z,100996.42
2023-02-15T01:42:34.361Z,100993.81
2023-02-15T01:43:45.252Z,101002.50
2023-02-15T01:44:56.323Z,101003.39
2023-02-15T01:45:58.731Z,101000.80
2023-02-15T01:47:01.191Z,100994.69
2023-02-15T01:48:21.981Z,100999.05
2023-02-15T01:49:27.607Z,101001.63
2023-02-15T01:50:38.822Z,101002.50
2023-02-15T01:51:44.624Z,101005.97
2023-02-15T01:53:02.335Z,100988.59
2023-02-15T01:55:25.398Z,101000.70
2023-02-15T01:56:33.940Z,101002.49
2023-02-15T01:57:37.019Z,101000.80
2023-02-15T01:58:39.350Z,101004.26
2023-02-15T01:59:44.568Z,100997.28
2023-02-15T02:00:48.106Z,100997.28
2023-02-15T02:01:52.983Z,101002.50
2023-02-15T02:02:57.299Z,101006.86
2023-02-15T02:04:14.859Z,101002.51
2023-02-15T02:05:17.279Z,101008.61
2023-02-15T02:06:26.198Z,101007.73
2023-02-15T02:07:31.258Z,101002.50
2023-02-15T02:08:34.500Z,101003.41
2023-02-15T02:09:37.581Z,101008.61
2023-02-15T02:10:39.716Z,101016.39
2023-02-15T02:11:43.985Z,101005.97
2023-02-15T02:12:48.317Z,101010.31
2023-02-15T02:13:52.351Z,101011.22
2023-02-15T02:14:55.870Z,101009.48
2023-02-15T02:17:18.692Z,101010.30
2023-02-15T02:18:33.645Z,101009.46
2023-02-15T02:20:06.564Z,101017.28
2023-02-15T02:21:12.246Z,101009.45
2023-02-15T02:22:26.912Z,101010.33
2023-02-15T02:25:18.966Z,101000.73
2023-02-15T02:26:36.947Z,101010.34
2023-02-15T02:28:03.112Z,101006.85
2023-02-15T02:29:11.666Z,101003.35
2023-02-15T02:30:18.178Z,101015.52
2023-02-15T02:31:38.924Z,101009.47
2023-02-15T02:34:15.290Z,101001.66
2023-02-15T02:35:32.640Z,101003.36
2023-02-15T02:36:53.218Z,101003.34
2023-02-15T02:38:02.208Z,101009.45
2023-02-15T02:39:19.916Z,101008.61
2023-02-15T02:40:25.751Z,101012.08
2023-02-15T02:41:57.679Z,101012.92
2023-02-15T02:43:18.353Z,101006.86
2023-02-15T02:44:24.059Z,101014.69
2023-02-15T02:45:35.452Z,101015.55
2023-02-15T02:46:39.324Z,101012.08
2023-02-15T02:47:57.448Z,101007.73
2023-02-15T02:48:59.711Z,101018.15
2023-02-15T02:50:05.772Z,101019.91
2023-02-15T02:51:08.037Z,101020.80
2023-02-15T02:52:40.066Z,101019.05
2023-02-15T02:53:42.237Z,101019.05
2023-02-15T02:54:44.642Z,101020.77
2023-02-15T02:55:55.776Z,101016.45
2023-02-15T02:57:00.577Z,101026.02
2023-02-15T02:58:06.860Z,101018.20
2023-02-15T02:59:18.249Z,101030.34
2023-02-15T03:00:21.998Z,101027.73
2023-02-15T03:01:31.358Z,101025.12
2023-02-15T03:02:37.118Z,101028.62
2023-02-15T03:03:48.230Z,101028.62
2023-02-15T03:04:54.149Z,101030.34
2023-02-15T03:06:00.160Z,101032.09
2023-02-15T03:07:09.901Z,101037.30
2023-02-15T03:08:15.589Z,101037.30
2023-02-15T03:09:27.487Z,101031.23
2023-02-15T03:10:30.452Z,101032.98
2023-02-15T03:11:33.037Z,101038.16
2023-02-15T03:12:37.768Z,101037.30
2023-02-15T03:13:40.801Z,101036.44
2023-02-15T03:14:47.754Z,101035.55
2023-02-15T03:15:51.382Z,101043.37
2023-02-15T03:16:55.349Z,101043.37
2023-02-15T03:18:01.222Z,101036.44
2023-02-15T03:19:09.866Z,101034.69
2023-02-15T03:20:22.795Z,101027.77
2023-02-15T03:21:34.381Z,101034.70
2023-02-15T03:22:38.075Z,101039.05
2023-02-15T03:23:40.500Z,101042.52
2023-02-15T03:24:46.907Z,101039.91
2023-02-15T03:27:06.876Z,101037.30
2023-02-15T03:28:18.491Z,101032.95
2023-02-15T03:29:24.229Z,101041.66
2023-02-15T03:30:28.707Z,101032.95
2023-02-15T03:31:34.517Z,101042.52
2023-02-15T03:32:39.693Z,101032.98
2023-02-15T03:33:45.455Z,101033.84
2023-02-15T03:34:47.907Z,101039.05
2023-02-15T03:36:08.959Z,101033.84
2023-02-15T03:37:17.789Z,101040.77
2023-02-15T03:38:27.353Z,101034.70
2023-02-15T03:39:49.860Z,101038.19
2023-02-15T03:40:55.921Z,101037.30
2023-02-15T03:42:07.470Z,101046.87
2023-02-15T03:43:23.304Z,101037.30
2023-02-15T03:44:31.239Z,101039.05
2023-02-15T03:45:35.566Z,101045.12
2023-02-15T03:46:51.719Z,101042.52
2023-02-15T03:47:56.774Z,101043.37
2023-02-15T03:49:05.606Z,101045.12
2023-02-15T03:50:15.562Z,101044.27
2023-02-15T03:51:21.549Z,101051.20
2023-02-15T03:52:27.234Z,101048.59
2023-02-15T03:53:30.622Z,101046.87
2023-02-15T03:54:34.727Z,101044.27
2023-02-15T03:55:38.430Z,101040.77
2023-02-15T03:56:42.525Z,101047.73
2023-02-15T03:57:45.151Z,101053.80
2023-02-15T03:58:47.451Z,101038.19
2023-02-15T03:59:49.629Z,101044.27
2023-02-15T04:01:00.425Z,101043.37
2023-02-15T04:02:12.115Z,101045.98
2023-02-15T04:03:28.084Z,101049.45
2023-02-15T04:04:37.764Z,101045.12
2023-02-15T04:05:40.603Z,101045.98
2023-02-15T04:06:42.604Z,101052.95
2023-02-15T04:07:47.716Z,101047.73
2023-02-15T04:08:49.634Z,101056.41
2023-02-15T04:09:51.519Z,101052.09
2023-02-15T04:10:53.583Z,101048.59
2023-02-15T04:11:55.692Z,101060.77
2023-02-15T04:12:57.585Z,101059.02
2023-02-15T04:14:00.152Z,101057.30
2023-02-15T04:15:02.400Z,101062.50
2023-02-15T04:16:05.757Z,101057.29
2023-02-15T04:17:09.738Z,101059.91
2023-02-15T04:18:32.793Z,101054.69
2023-02-15T04:19:35.194Z,101061.63
2023-02-15T04:20:37.317Z,101059.91
2023-02-15T04:21:39.268Z,101058.16
2023-02-15T04:22:41.454Z,101056.43
2023-02-15T04:23:43.491Z,101066.86
2023-02-15T04:24:45.474Z,101057.30
2023-02-15T04:25:48.244Z,101060.77
2023-02-15T04:26:50.679Z,101062.51
2023-02-15T04:27:54.510Z,101060.77
2023-02-15T04:28:56.417Z,101058.16
2023-02-15T04:29:58.354Z,101072.93
2023-02-15T04:31:01.818Z,101065.11
2023-02-15T04:32:04.127Z,101065.11
2023-02-15T04:33:06.280Z,101067.73
2023-02-15T04:34:08.163Z,101062.52
2023-02-15T04:35:10.906Z,101061.64
2023-02-15T04:36:13.232Z,101065.11
2023-02-15T04:37:15.132Z,101067.72
2023-02-15T04:38:17.015Z,101063.36
2023-02-15T04:39:19.553Z,101065.11
2023-02-15T04:40:21.537Z,101064.23
2023-02-15T04:41:23.556Z,101073.80
2023-02-15T04:42:26.298Z,101072.05
2023-02-15T04:43:28.621Z,101069.45
2023-02-15T04:44:30.485Z,101070.34
2023-02-15T04:45:32.390Z,101069.44
2023-02-15T04:46:34.704Z,101067.73
2023-02-15T04:47:36.668Z,101066.86
2023-02-15T04:48:38.732Z,101066.86
2023-02-15T04:49:40.646Z,101071.19
2023-02-15T04:50:44.951Z,101071.18
2023-02-15T04:51:49.036Z,101075.53
2023-02-15T04:52:50.968Z,101073.80
2023-02-15T04:53:53.248Z,101079.89
2023-02-15T04:54:55.251Z,101068.58
2023-02-15T04:55:57.207Z,101070.33
2023-02-15T04:56:59.452Z,101077.28
2023-02-15T04:58:01.425Z,101072.94
2023-02-15T04:59:04.259Z,101072.94
2023-02-15T05:00:08.043Z,101065.97
2023-02-15T05:01:10.765Z,101076.41
2023-02-15T05:02:12.851Z,101074.67
2023-02-15T05:03:14.789Z,101079.86
2023-02-15T05:04:16.779Z,101075.52
2023-02-15T05:05:18.856Z,101085.94
2023-02-15T05:06:21.828Z,101083.33
2023-02-15T05:07:23.813Z,101083.34
2023-02-15T05:08:25.989Z,101086.81
2023-02-15T05:09:27.952Z,101083.34
2023-02-15T05:10:30.046Z,101092.05
2023-02-15T05:11:32.106Z,101098.10
2023-02-15T05:12:34.463Z,101092.89
2023-02-15T05:13:36.672Z,101091.15
2023-02-15T05:14:38.957Z,101095.52
2023-02-15T05:15:41.042Z,101101.60
2023-02-15T05:16:43.630Z,101096.38
2023-02-15T05:17:45.794Z,101098.99
2023-02-15T05:18:47.874Z,101105.92
2023-02-15T05:19:49.762Z,101105.93
2023-02-15T05:20:51.902Z,101096.38
2023-02-15T05:21:53.945Z,101101.58
2023-02-15T05:22:56.166Z,101103.30
2023-02-15T05:23:58.976Z,101104.20
2023-02-15T05:25:01.559Z,101101.56
2023-02-15T05:26:04.175Z,101099.85
2023-02-15T05:27:06.726Z,101099.88
2023-02-15T05:28:10.864Z,101104.19
2023-02-15T05:29:13.250Z,101103.33
2023-02-15T05:30:15.972Z,101106.80
2023-02-15T05:31:19.845Z,101103.30
2023-02-15T05:32:22.328Z,101094.63
2023-02-15T05:33:24.536Z,101105.93
2023-02-15T05:34:26.438Z,101105.07
2023-02-15T05:35:28.309Z,101103.33
2023-02-15T05:36:30.472Z,101098.13
2023-02-15T05:37:32.499Z,101102.47
2023-02-15T05:38:35.046Z,101102.47
2023-02-15T05:39:36.983Z,101100.72
2023-02-15T05:40:38.962Z,101112.90
2023-02-15T05:41:41.612Z,101108.53
2023-02-15T05:42:43.927Z,101112.88
2023-02-15T05:43:46.748Z,101122.43
2023-02-15T05:44:49.032Z,101115.45
2023-02-15T05:45:54.001Z,101118.08
2023-02-15T05:46:56.451Z,101113.72
2023-02-15T05:47:58.454Z,101119.84
2023-02-15T05:49:00.455Z,101117.23
2023-02-15T05:50:03.809Z,101119.80
2023-02-15T05:51:09.070Z,101121.52
2023-02-15T05:52:11.096Z,101124.16
2023-02-15T05:53:13.130Z,101125.05
2023-02-15T05:54:15.105Z,101127.63
2023-02-15T05:55:17.457Z,101123.28
2023-02-15T05:56:20.492Z,101120.70
2023-02-15T05:57:23.411Z,101127.66
2023-02-15T05:58:32.045Z,101129.36
2023-02-15T05:59:34.119Z,101129.38
2023-02-15T06:00:38.181Z,101132.01
2023-02-15T06:01:40.285Z,101126.77
2023-02-15T06:02:42.274Z,101142.38
2023-02-15T06:03:46.802Z,101132.84
2023-02-15T06:04:48.865Z,101138.05
2023-02-15T06:05:50.938Z,101138.06
2023-02-15T06:06:53.089Z,101134.60
2023-02-15T06:07:55.060Z,101131.14
2023-02-15T06:08:57.239Z,101138.08
2023-02-15T06:09:59.131Z,101135.47
2023-02-15T06:11:01.797Z,101132.84
2023-02-15T06:12:04.555Z,101138.08
2023-02-15T06:13:07.315Z,101127.63
2023-02-15T06:14:10.050Z,101138.08
2023-02-15T06:15:12.169Z,101136.34
2023-02-15T06:16:16.097Z,101135.45
2023-02-15T06:17:18.166Z,101136.34
2023-02-15T06:18:20.480Z,101132.86
2023-02-15T06:19:22.404Z,101133.72
2023-02-15T06:20:25.455Z,101139.83
2023-02-15T06:21:27.817Z,101129.41
2023-02-15T06:22:29.803Z,101138.08
2023-02-15T06:23:31.701Z,101132.88
2023-02-15T06:24:33.608Z,101141.55
2023-02-15T06:25:36.906Z,101126.78
2023-02-15T06:26:39.901Z,101135.45
2023-02-15T06:27:42.783Z,101132.00
2023-02-15T06:28:44.992Z,101128.53
2023-02-15T06:29:46.901Z,101129.39
2023-02-15T06:30:48.936Z,101129.41
2023-02-15T06:31:51.041Z,101125.94
2023-02-15T06:32:53.295Z,101133.74
2023-02-15T06:33:55.393Z,101132.90
2023-02-15T06:34:57.282Z,101129.39
2023-02-15T06:36:00.111Z,101136.36
2023-02-15T06:37:02.467Z,101135.50
2023-02-15T06:38:04.386Z,101138.08
2023-02-15T06:39:07.917Z,101133.74
2023-02-15T06:40:10.937Z,101137.23
2023-02-15T06:41:13.092Z,101138.98
2023-02-15T06:42:14.969Z,101132.02
2023-02-15T06:43:17.039Z,101132.91
2023-02-15T06:44:18.930Z,101132.02
2023-02-15T06:45:21.011Z,101130.29
2023-02-15T06:46:23.882Z,101128.53
2023-02-15T06:47:26.209Z,101114.65
2023-02-15T06:48:28.524Z,101125.94
2023-02-15T06:49:30.524Z,101124.20
2023-02-15T06:50:32.905Z,101125.06
2023-02-15T06:51:34.798Z,101119.86
2023-02-15T06:52:38.918Z,101123.34
2023-02-15T06:53:40.864Z,101121.59
2023-02-15T06:54:42.770Z,101113.75
2023-02-15T06:55:44.742Z,101118.98
2023-02-15T06:56:46.727Z,101129.42
2023-02-15T06:57:50.886Z,101126.81
2023-02-15T06:58:53.186Z,101122.45
2023-02-15T06:59:55.199Z,101118.13
2023-02-15T07:00:57.453Z,101124.20
2023-02-15T07:01:59.452Z,101125.06
2023-02-15T07:03:01.318Z,101129.42
2023-02-15T07:04:04.535Z,101125.88
2023-02-15T07:05:06.773Z,101124.10
2023-02-15T07:06:09.358Z,101125.02
2023-02-15T07:07:12.810Z,101133.64
2023-02-15T07:08:14.784Z,101125.00
2023-02-15T07:09:16.677Z,101131.98
2023-02-15T07:10:19.182Z,101132.85
2023-02-15T07:11:21.078Z,101136.36
2023-02-15T07:12:23.804Z,101121.56
2023-02-15T07:13:25.788Z,101122.40
2023-02-15T07:14:29.045Z,101125.88
2023-02-15T07:15:31.127Z,101124.14
2023-02-15T07:16:33.105Z,101116.27
2023-02-15T07:17:36.889Z,101124.02
2023-02-15T07:18:40.080Z,101118.86
2023-02-15T07:19:42.135Z,101115.42
2023-02-15T07:20:44.174Z,101117.19
2023-02-15T07:21:46.085Z,101118.94
2023-02-15T07:22:48.540Z,101110.20
2023-02-15T07:23:50.424Z,101117.20
2023-02-15T07:24:52.300Z,101107.66
2023-02-15T07:25:58.872Z,101108.50
2023-02-15T07:27:01.893Z,101108.42
2023-02-15T07:28:04.876Z,101111.02
2023-02-15T07:29:07.784Z,101113.64
2023-02-15T07:30:13.246Z,101111.94
2023-02-15T07:31:15.447Z,101108.41
2023-02-15T07:32:17.851Z,101114.56
2023-02-15T07:33:20.303Z,101111.04
2023-02-15T07:34:22.228Z,101105.79
2023-02-15T07:35:24.659Z,101114.48
2023-02-15T07:36:27.082Z,101110.17
2023-02-15T07:37:29.124Z,101107.54
2023-02-15T07:38:34.581Z,101104.13
2023-02-15T07:39:36.652Z,101113.72
2023-02-15T07:40:39.229Z,101109.37
2023-02-15T07:41:41.250Z,101106.73
2023-02-15T07:42:43.143Z,101117.11
2023-02-15T07:43:46.506Z,101112.81
2023-02-15T07:44:49.733Z,101115.37
2023-02-15T07:45:51.737Z,101104.93
2023-02-15T07:46:54.188Z,101110.98
2023-02-15T07:47:56.452Z,101110.05
2023-02-15T07:48:58.417Z,101117.88
2023-02-15T07:50:00.316Z,101116.06
2023-02-15T07:51:05.144Z,101108.11
2023-02-15T07:52:07.522Z,101122.07
2023-02-15T07:53:09.628Z,101123.94
2023-02-15T07:54:11.770Z,101130.95
2023-02-15T07:55:14.059Z,101121.34
2023-02-15T07:56:16.282Z,101117.06
2023-02-15T07:57:18.311Z,101128.17
2023-02-15T07:58:20.292Z,101126.25
2023-02-15T07:59:22.181Z,101127.14
2023-02-15T08:00:24.501Z,101120.63
2023-02-15T08:01:30.062Z,101127.12
2023-02-15T08:02:32.144Z,101124.59
2023-02-15T08:03:34.751Z,101124.62
2023-02-15T08:04:36.746Z,101136.92
2023-02-15T08:05:41.129Z,101142.52
2023-02-15T08:06:43.169Z,101135.86
2023-02-15T08:07:45.152Z,101135.22
2023-02-15T08:08:47.209Z,101141.24
2023-02-15T08:09:49.184Z,101154.48
2023-02-15T08:10:52.174Z,101137.81
2023-02-15T08:11:54.113Z,101137.84
2023-02-15T08:12:56.087Z,101145.67
2023-02-15T08:14:00.873Z,101138.75
2023-02-15T08:15:03.274Z,101143.14
2023-02-15T08:16:06.299Z,101139.70
2023-02-15T08:17:08.318Z,101144.93
2023-02-15T08:18:10.240Z,101148.41
2023-02-15T08:19:21.432Z,101153.59
2023-02-15T08:20:24.017Z,101148.30
2023-02-15T08:21:28.246Z,101143.86
2023-02-15T08:22:30.285Z,101139.44
2023-02-15T08:23:32.174Z,101144.52
2023-02-15T08:24:36.567Z,101146.34
2023-02-15T08:25:38.493Z,101140.39
2023-02-15T08:26:42.528Z,101140.30
2023-02-15T08:27:44.644Z,101148.37
2023-02-15T08:28:46.686Z,101145.77
2023-02-15T08:29:48.585Z,101144.84
2023-02-15T08:30:50.810Z,101139.63
2023-02-15T08:32:01.752Z,101143.22
2023-02-15T08:33:03.865Z,101138.05
2023-02-15T08:34:06.803Z,101138.90
2023-02-15T08:35:08.900Z,101146.65
2023-02-15T08:36:18.044Z,101146.72
2023-02-15T08:37:20.050Z,101151.94
2023-02-15T08:38:21.945Z,101151.86
2023-02-15T08:39:24.329Z,101154.55
2023-02-15T08:40:26.524Z,101146.74
2023-02-15T08:41:32.055Z,101158.94
2023-02-15T08:42:34.897Z,101159.78
2023-02-15T08:43:37.237Z,101163.24
2023-02-15T08:44:39.126Z,101157.98
2023-02-15T08:45:42.089Z,101162.25
2023-02-15T08:46:45.487Z,101156.21
2023-02-15T08:47:47.470Z,101159.78
2023-02-15T08:48:51.105Z,101162.41
2023-02-15T08:49:53.030Z,101160.64
2023-02-15T08:50:55.026Z,101154.56
2023-02-15T08:51:57.140Z,101169.37
2023-02-15T08:52:59.142Z,101160.70
2023-02-15T08:54:05.278Z,101160.70
2023-02-15T08:55:07.752Z,101162.41
2023-02-15T08:56:10.967Z,101166.75
2023-02-15T08:57:12.987Z,101165.87
2023-02-15T08:58:14.983Z,101165.87
2023-02-15T08:59:19.867Z,101162.41
2023-02-15T09:00:22.574Z,101151.94
2023-02-15T09:01:27.515Z,101154.56
2023-02-15T09:02:29.592Z,101156.31
2023-02-15T09:03:31.574Z,101151.03
2023-02-15T09:04:34.176Z,101144.10
2023-02-15T09:05:36.079Z,101149.25
2023-02-15T09:06:40.066Z,101149.25
2023-02-15T09:07:42.238Z,101155.30
2023-02-15T09:08:44.602Z,101147.53
2023-02-15T09:09:46.472Z,101158.86
2023-02-15T09:10:48.550Z,101152.80
2023-02-15T09:11:56.824Z,101160.64
2023-02-15T09:12:56.490Z,101151.96
2023-02-15T09:14:05.135Z,101153.70
2023-02-15T09:15:07.748Z,101155.42
2023-02-15T09:16:10.050Z,101160.69
2023-02-15T09:17:14.204Z,101162.37
2023-02-15T09:18:15.845Z,101153.64
2023-02-15T09:19:20.051Z,101164.09
2023-02-15T09:20:22.227Z,101163.13
2023-02-15T09:21:25.640Z,101157.84
2023-02-15T09:22:27.669Z,101150.81
2023-02-15T09:23:29.531Z,101147.28
2023-02-15T09:24:32.886Z,101149.89
2023-02-15T09:25:36.356Z,101160.52
2023-02-15T09:26:42.134Z,101162.39
2023-02-15T09:27:44.158Z,101164.09
2023-02-15T09:28:47.078Z,101162.41
2023-02-15T09:29:48.986Z,101161.56
2023-02-15T09:30:51.221Z,101160.64
2023-02-15T09:31:53.300Z,101153.59
2023-02-15T09:32:55.258Z,101145.73
2023-02-15T09:33:59.962Z,101158.86
2023-02-15T09:35:02.799Z,101160.61
2023-02-15T09:36:07.782Z,101160.61
2023-02-15T09:37:09.809Z,101162.39
2023-02-15T09:38:13.042Z,101161.47
2023-02-15T09:39:25.922Z,101158.82
2023-02-15T09:40:31.289Z,101162.25
2023-02-15T09:41:50.027Z,101150.81
2023-02-15T09:43:04.991Z,101155.15
2023-02-15T09:44:35.177Z,101163.86
2023-02-15T09:45:47.330Z,101165.81
2023-02-15T09:47:08.154Z,101164.05
2023-02-15T09:48:41.150Z,101169.32
2023-02-15T09:51:21.612Z,101152.81
2023-02-15T09:52:27.623Z,101161.55
2023-02-15T09:53:54.537Z,101149.34
2023-02-15T09:55:03.504Z,101151.02
2023-02-15T09:56:12.530Z,101157.02
2023-02-15T09:57:31.002Z,101153.57
2023-02-15T09:58:43.037Z,101155.30
2023-02-15T10:00:00.594Z,101148.38
2023-02-15T10:01:12.536Z,101145.77
2023-02-15T10:02:27.040Z,101147.40
2023-02-15T10:03:35.807Z,101149.21
2023-02-15T10:05:04.818Z,101150.08
2023-02-15T10:06:31.507Z,101151.95
2023-02-15T10:07:54.624Z,101137.92
2023-02-15T10:09:09.350Z,101142.20
2023-02-15T10:11:55.606Z,101144.84
2023-02-15T10:13:16.017Z,101151.80
2023-02-15T10:14:27.943Z,101136.94
2023-02-15T10:15:40.633Z,101139.56
2023-02-15T10:17:09.624Z,101130.97
2023-02-15T10:18:38.543Z,101137.98
2023-02-15T10:19:47.414Z,101132.78
2023-02-15T10:22:21.882Z,101134.38
2023-02-15T10:23:37.159Z,101136.16
2023-02-15T10:24:48.752Z,101136.16
2023-02-15T10:26:11.806Z,101136.13
2023-02-15T10:27:18.068Z,101126.50
2023-02-15T10:28:26.707Z,101138.61
2023-02-15T10:29:41.000Z,101130.87
2023-02-15T10:30:52.593Z,101133.40
2023-02-15T10:32:04.420Z,101136.86
2023-02-15T10:33:23.317Z,101126.33
2023-02-15T10:34:31.692Z,101132.34
2023-02-15T10:35:47.196Z,101133.31
2023-02-15T10:37:11.719Z,101131.53
2023-02-15T10:38:34.113Z,101126.32
2023-02-15T10:39:59.463Z,101128.95
2023-02-15T10:41:08.386Z,101129.88
2023-02-15T10:42:22.798Z,101126.47
2023-02-15T10:43:35.484Z,101129.11
2023-02-15T10:44:59.401Z,101138.59
2023-02-15T10:46:39.536Z,101136.05
2023-02-15T10:47:59.610Z,101137.77
2023-02-15T10:49:26.244Z,101136.98
2023-02-15T10:50:42.125Z,101138.65
2023-02-15T10:52:04.756Z,101133.37
2023-02-15T10:53:10.582Z,101130.91
2023-02-15T10:54:21.764Z,101135.08
2023-02-15T10:55:30.500Z,101120.20
2023-02-15T10:56:54.457Z,101129.97
2023-02-15T10:58:34.995Z,101131.77
2023-02-15T10:59:57.420Z,101119.50
2023-02-15T11:01:12.488Z,101125.59
2023-02-15T11:04:18.950Z,101128.13
2023-02-15T11:05:24.801Z,101132.42
2023-02-15T11:06:28.150Z,101138.65
2023-02-15T11:07:38.141Z,101129.00
2023-02-15T11:08:46.371Z,101120.22
2023-02-15T11:09:51.991Z,101121.00
2023-02-15T11:11:03.747Z,101121.85
2023-02-15T11:12:09.748Z,101126.25
2023-02-15T11:13:20.175Z,101133.17
2023-02-15T11:14:25.937Z,101135.75
2023-02-15T11:15:34.639Z,101121.87
2023-02-15T11:16:40.384Z,101128.92
2023-02-15T11:17:46.044Z,101121.84
2023-02-15T11:18:57.617Z,101126.10
2023-02-15T11:20:01.397Z,101126.09
2023-02-15T11:21:33.221Z,101118.22
2023-02-15T11:22:36.210Z,101122.58
2023-02-15T11:23:44.623Z,101126.39
2023-02-15T11:24:47.555Z,101114.08
2023-02-15T11:26:02.408Z,101118.37
2023-02-15T11:27:08.024Z,101121.12
2023-02-15T11:28:13.886Z,101118.41
2023-02-15T11:29:25.663Z,101110.43
2023-02-15T11:30:49.607Z,101124.36
2023-02-15T11:31:55.581Z,101121.86
2023-02-15T11:33:00.822Z,101121.69
2023-02-15T11:34:06.640Z,101113.02
2023-02-15T11:35:16.418Z,101116.50
2023-02-15T11:36:31.460Z,101111.29
2023-02-15T11:37:43.257Z,101109.45
2023-02-15T11:38:49.002Z,101101.48
2023-02-15T11:39:52.435Z,101109.45
2023-02-15T11:42:15.499Z,101118.20
2023-02-15T11:43:24.055Z,101121.67
2023-02-15T11:44:32.844Z,101118.17
2023-02-15T11:45:35.549Z,101113.00
2023-02-15T11:46:38.748Z,101119.13
2023-02-15T11:47:41.405Z,101118.19
2023-02-15T11:48:43.862Z,101116.60
2023-02-15T11:49:46.647Z,101113.06
2023-02-15T11:50:49.892Z,101113.03
2023-02-15T11:51:54.954Z,101113.92
2023-02-15T11:53:03.721Z,101116.45
2023-02-15T11:54:06.360Z,101119.03
2023-02-15T11:55:15.760Z,101103.37
2023-02-15T11:56:22.230Z,101112.19
2023-02-15T11:57:30.778Z,101103.37
2023-02-15T11:59:55.912Z,101101.39
2023-02-15T12:01:18.369Z,101106.62
2023-02-15T12:02:22.940Z,101099.78
2023-02-15T12:03:44.248Z,101100.75
2023-02-15T12:04:59.095Z,101111.98
2023-02-15T12:06:04.529Z,101099.94
2023-02-15T12:07:25.954Z,101100.88
2023-02-15T12:08:31.758Z,101096.43
2023-02-15T12:09:46.619Z,101091.12
2023-02-15T12:11:09.260Z,101086.88
2023-02-15T12:12:32.543Z,101095.59
2023-02-15T12:13:35.935Z,101094.77
2023-02-15T12:14:53.635Z,101093.83
2023-02-15T12:15:59.390Z,101096.45
2023-02-15T12:17:01.753Z,101096.47
2023-02-15T12:18:04.665Z,101089.48
2023-02-15T12:19:10.359Z,101097.37
2023-02-15T12:20:16.507Z,101099.10
2023-02-15T12:21:30.680Z,101086.84
2023-02-15T12:22:36.229Z,101093.67
2023-02-15T12:23:54.495Z,101092.77
2023-02-15T12:25:00.176Z,101092.70
2023-02-15T12:26:03.664Z,101082.20
2023-02-15T12:27:18.125Z,101078.77
2023-02-15T12:28:33.048Z,101080.55
2023-02-15T12:29:50.965Z,101094.52
2023-02-15T12:30:55.238Z,101098.13
2023-02-15T12:31:58.370Z,101092.96
2023-02-15T12:33:19.016Z,101091.19
2023-02-15T12:34:28.156Z,101085.14
2023-02-15T12:35:37.890Z,101089.34
2023-02-15T12:36:49.571Z,101086.73
2023-02-15T12:37:53.219Z,101087.47
2023-02-15T12:39:17.477Z,101083.16
2023-02-15T12:41:34.030Z,101088.95
2023-02-15T12:42:44.254Z,101086.66
2023-02-15T12:43:46.166Z,101090.11
2023-02-15T12:45:00.941Z,101095.42
2023-02-15T12:46:26.341Z,101083.14
2023-02-15T12:47:31.478Z,101098.91
2023-02-15T12:48:33.608Z,101090.17